Time;durP1;ratioP1;P1;durP2;ratioP2;P2;SDS_P1;SDS_P2;PMS_P1;PMS_P2;Temp;Humidity;BMP_temperature;BMP_pressure;BME280_temperature;BME280_humidity;BME280_pressure;Samples;Min_cycle;Max_cycle;Signal;HPM_P1;HPM_P2
2022/06/06 00:02:23;;;;;;;3.00;1.83;;;;;;;18.39;85.27;95752.50;4983657;28;20231;-85
2022/06/06 00:04:49;;;;;;;2.83;1.88;;;;;;;18.39;85.16;95748.06;4976922;28;20209;-84
2022/06/06 00:07:16;;;;;;;3.17;2.30;;;;;;;18.43;84.87;95751.03;4983817;28;20211;-84
2022/06/06 00:09:42;;;;;;;2.10;1.80;;;;;;;18.45;84.56;95749.00;4975276;28;20661;-85
2022/06/06 00:12:10;;;;;;;2.78;1.70;;;;;;;18.39;85.14;95744.66;4983279;28;20216;-85
2022/06/06 00:14:37;;;;;;;4.53;2.00;;;;;;;18.28;86.13;95754.00;4967092;28;20232;-85
2022/06/06 00:17:04;;;;;;;4.60;1.70;;;;;;;18.30;85.32;95744.97;4966187;28;20224;-85
2022/06/06 00:19:31;;;;;;;2.65;1.80;;;;;;;18.20;85.39;95746.53;4970767;28;20225;-85
2022/06/06 00:21:57;;;;;;;2.10;1.90;;;;;;;18.22;85.02;95745.28;4983595;28;20298;-85
2022/06/06 00:24:24;;;;;;;2.20;2.00;;;;;;;18.23;85.70;95735.66;4970147;28;20494;-83
2022/06/06 00:26:50;;;;;;;2.95;1.65;;;;;;;18.24;84.71;95737.25;4979445;28;20756;-84
2022/06/06 00:29:20;;;;;;;1.80;1.70;;;;;;;18.26;84.17;95741.22;4984470;28;20209;-85
2022/06/06 00:34:49;;;;;;;2.80;2.05;;;;;;;18.28;84.21;95739.16;4978554;28;20595;-86
2022/06/06 00:37:19;;;;;;;4.00;2.05;;;;;;;18.30;84.02;95754.59;4982378;28;20682;-85
2022/06/06 00:39:46;;;;;;;2.83;1.80;;;;;;;18.32;83.39;95760.38;4984814;28;20795;-84
2022/06/06 00:42:17;;;;;;;4.25;1.95;;;;;;;18.33;83.37;95769.00;4980908;28;20227;-84
2022/06/06 00:44:45;;;;;;;2.65;2.05;;;;;;;18.33;82.81;95767.19;4977928;28;20201;-86
2022/06/06 00:47:18;;;;;;;2.38;1.95;;;;;;;18.34;82.86;95768.78;4983205;28;20450;-84
2022/06/06 00:49:48;;;;;;;2.30;2.00;;;;;;;18.32;84.13;95776.03;4977175;28;20349;-86
2022/06/06 00:52:32;;;;;;;1.95;1.80;;;;;;;18.26;83.37;95771.72;4979718;28;20535;-85
2022/06/06 00:55:01;;;;;;;2.05;1.88;;;;;;;18.22;83.13;95768.75;4977270;28;20205;-83
2022/06/06 00:57:32;;;;;;;3.63;2.20;;;;;;;18.23;83.01;95777.38;4983468;28;20223;-86
2022/06/06 01:00:03;;;;;;;2.17;1.80;;;;;;;18.18;83.37;95777.22;4988526;28;20223;-85
2022/06/06 01:02:30;;;;;;;3.22;1.80;;;;;;;18.20;83.26;95775.19;4987250;28;20224;-85
2022/06/06 01:04:56;;;;;;;3.75;2.03;;;;;;;18.13;83.17;95772.66;4981505;28;20208;-85
2022/06/06 01:07:23;;;;;;;4.90;2.45;;;;;;;18.16;83.01;95776.63;4982193;28;20196;-86
2022/06/06 01:09:50;;;;;;;2.95;1.90;;;;;;;18.18;82.97;95777.22;4987355;28;20224;-85
2022/06/06 01:12:20;;;;;;;2.45;1.95;;;;;;;18.22;82.47;95779.19;4986257;28;20639;-85
2022/06/06 01:14:50;;;;;;;6.80;2.53;;;;;;;18.24;82.65;95779.75;4982154;28;20197;-85
2022/06/06 01:17:30;;;;;;;2.25;2.00;;;;;;;18.25;83.67;95780.56;4979067;28;20212;-85
2022/06/06 01:20:19;;;;;;;2.65;1.90;;;;;;;18.24;82.72;95778.97;4981272;28;20227;-85
2022/06/06 01:23:25;;;;;;;2.03;1.90;;;;;;;18.29;82.52;95784.28;4989211;28;20242;-85
2022/06/06 01:26:27;;;;;;;3.30;2.00;;;;;;;18.28;82.32;95775.66;4981621;28;20219;-85
2022/06/06 01:29:01;;;;;;;2.40;2.20;;;;;;;18.25;82.64;95783.94;4966741;28;20231;-85
2022/06/06 01:31:37;;;;;;;2.95;2.13;;;;;;;18.21;83.55;95777.56;4988219;28;20231;-85
2022/06/06 01:34:08;;;;;;;4.68;2.50;;;;;;;18.14;83.40;95782.06;4977614;28;20195;-86
2022/06/06 01:36:36;;;;;;;6.07;2.10;;;;;;;18.17;83.63;95778.22;4985190;28;20223;-86
2022/06/06 01:39:08;;;;;;;2.13;1.90;;;;;;;18.22;83.28;95784.38;4964430;28;20210;-85
2022/06/06 01:41:43;;;;;;;3.75;2.30;;;;;;;18.10;83.27;95786.13;4988676;28;20754;-86
2022/06/06 01:44:20;;;;;;;2.78;2.20;;;;;;;17.97;83.89;95781.06;4972785;28;20223;-85
2022/06/06 01:46:48;;;;;;;2.53;2.10;;;;;;;17.98;83.80;95779.25;4986018;28;20200;-85
2022/06/06 01:49:16;;;;;;;4.28;2.00;;;;;;;17.99;83.89;95776.44;4967094;28;20204;-85
2022/06/06 01:51:43;;;;;;;4.15;2.40;;;;;;;18.00;83.85;95778.03;4983004;28;20220;-85
2022/06/06 01:54:09;;;;;;;2.85;2.05;;;;;;;18.02;83.93;95772.59;4978728;28;20204;-85
2022/06/06 01:56:40;;;;;;;2.60;2.15;;;;;;;17.98;83.96;95774.84;4976621;28;20447;-85
2022/06/06 01:59:06;;;;;;;2.67;2.40;;;;;;;17.98;83.45;95769.63;4969037;28;20193;-85
2022/06/06 02:01:34;;;;;;;3.05;2.35;;;;;;;17.99;83.46;95778.25;4969592;28;20231;-85
2022/06/06 02:04:01;;;;;;;2.83;2.55;;;;;;;17.87;83.87;95781.59;4988427;28;20208;-85
2022/06/06 02:06:27;;;;;;;3.50;2.67;;;;;;;17.80;84.46;95772.22;4969326;29;20254;-85
2022/06/06 02:08:54;;;;;;;3.63;2.30;;;;;;;17.73;85.01;95774.91;4969065;28;20216;-85
2022/06/06 02:11:21;;;;;;;2.63;2.42;;;;;;;17.60;85.46;95764.59;4981299;28;20224;-85
2022/06/06 02:13:48;;;;;;;2.40;2.20;;;;;;;17.55;85.96;95767.84;4986397;28;20208;-85
2022/06/06 02:16:15;;;;;;;5.53;2.35;;;;;;;17.55;85.95;95761.84;4982285;28;20203;-84
2022/06/06 02:18:43;;;;;;;2.78;2.03;;;;;;;17.57;85.65;95767.63;4973447;28;20200;-85
2022/06/06 02:21:09;;;;;;;3.65;2.53;;;;;;;17.63;85.28;95763.38;4980179;28;20234;-85
2022/06/06 02:23:36;;;;;;;2.70;2.50;;;;;;;17.58;85.35;95767.41;4981600;28;20221;-85
2022/06/06 02:26:02;;;;;;;3.10;2.45;;;;;;;17.57;85.25;95778.84;4988160;28;20321;-85
2022/06/06 02:28:28;;;;;;;2.30;2.10;;;;;;;17.56;85.19;95773.84;4982769;28;20585;-85
2022/06/06 02:30:55;;;;;;;3.72;2.47;;;;;;;17.54;84.78;95781.06;4985862;28;20232;-86
2022/06/06 02:33:21;;;;;;;2.88;2.15;;;;;;;17.45;84.84;95775.34;4984765;28;20209;-86
2022/06/06 02:35:49;;;;;;;3.10;2.25;;;;;;;17.39;85.13;95768.41;4986321;28;20219;-85
2022/06/06 02:38:16;;;;;;;2.72;2.50;;;;;;;17.34;85.31;95776.03;4980428;28;20617;-85
2022/06/06 02:40:44;;;;;;;4.30;2.20;;;;;;;17.22;85.79;95770.75;4986654;28;20634;-85
2022/06/06 02:43:11;;;;;;;3.05;2.40;;;;;;;17.29;85.82;95777.72;4982164;28;20412;-85
2022/06/06 02:45:38;;;;;;;3.40;2.42;;;;;;;17.33;85.28;95784.06;4984157;28;20203;-85
2022/06/06 02:48:05;;;;;;;2.50;2.30;;;;;;;17.29;85.06;95782.91;4984455;28;20428;-85
2022/06/06 02:50:32;;;;;;;3.22;2.50;;;;;;;17.09;86.31;95786.47;4979579;28;20291;-85
2022/06/06 02:53:00;;;;;;;2.95;2.30;;;;;;;17.14;86.07;95786.59;4979312;28;20203;-85
2022/06/06 02:55:27;;;;;;;2.40;2.20;;;;;;;17.13;86.67;95797.22;4981228;28;20233;-85
2022/06/06 02:57:54;;;;;;;2.55;2.35;;;;;;;17.20;85.92;95788.38;4986903;28;20192;-85
2022/06/06 03:00:24;;;;;;;2.92;2.50;;;;;;;17.25;86.05;95788.53;4981552;28;20267;-85
2022/06/06 03:02:51;;;;;;;2.92;2.30;;;;;;;17.22;85.88;95794.16;4986871;28;20208;-85
2022/06/06 03:05:18;;;;;;;3.67;2.20;;;;;;;17.25;85.40;95790.34;4976148;28;20216;-85
2022/06/06 03:07:55;;;;;;;2.75;2.45;;;;;;;17.26;85.44;95803.16;4984455;28;20200;-85
2022/06/06 03:10:33;;;;;;;4.50;2.63;;;;;;;17.30;85.40;95802.72;4981362;28;20234;-85
2022/06/06 03:13:15;;;;;;;2.72;2.50;;;;;;;17.36;84.60;95807.06;4987302;28;20216;-85
2022/06/06 03:21:40;;;;;;;3.17;2.45;;;;;;;17.51;83.47;95810.16;4952673;28;20287;-85
2022/06/06 03:24:21;;;;;;;3.35;2.75;;;;;;;17.49;83.56;95820.78;4983505;28;20216;-86
2022/06/06 03:27:14;;;;;;;2.35;2.17;;;;;;;17.47;83.93;95825.41;4979029;28;20214;-85
2022/06/06 03:29:50;;;;;;;2.53;2.33;;;;;;;17.39;84.76;95814.44;4983582;28;20216;-85
2022/06/06 03:32:25;;;;;;;2.50;2.30;;;;;;;17.28;84.81;95826.34;4965142;28;20221;-85
2022/06/06 03:34:59;;;;;;;2.83;2.60;;;;;;;17.24;85.04;95820.78;4978724;28;20209;-85
2022/06/06 03:37:33;;;;;;;3.40;2.50;;;;;;;17.20;84.99;95824.81;4988107;28;20204;-85
2022/06/06 03:40:08;;;;;;;2.70;2.50;;;;;;;17.16;85.17;95835.84;4981990;28;20220;-85
2022/06/06 03:42:44;;;;;;;2.60;2.40;;;;;;;17.16;85.44;95831.44;4985860;28;20259;-85
2022/06/06 03:45:19;;;;;;;3.45;2.40;;;;;;;17.20;85.41;95835.22;4973490;28;20208;-85
2022/06/06 03:47:57;;;;;;;2.60;2.40;;;;;;;17.24;85.43;95833.00;4969155;28;20208;-83
2022/06/06 03:50:34;;;;;;;2.70;2.47;;;;;;;17.24;85.40;95833.00;4974838;28;20262;-84
2022/06/06 03:53:10;;;;;;;4.00;2.30;;;;;;;17.26;85.89;95841.38;4970243;28;20227;-85
2022/06/06 03:55:48;;;;;;;3.22;2.45;;;;;;;17.25;86.47;95838.00;4971763;28;20232;-85
2022/06/06 03:58:18;;;;;;;3.35;2.70;;;;;;;17.31;86.43;95841.56;4964297;28;20200;-84
2022/06/06 04:00:46;;;;;;;3.17;2.47;;;;;;;17.37;86.27;95845.91;4969287;28;20239;-84
2022/06/06 04:03:15;;;;;;;3.20;2.67;;;;;;;17.37;86.66;95843.28;4984929;28;20220;-83
2022/06/06 04:05:41;;;;;;;3.58;2.70;;;;;;;17.37;87.79;95839.88;4988958;28;20226;-84
2022/06/06 04:08:09;;;;;;;3.33;2.50;;;;;;;17.46;87.52;95839.44;4980848;28;20610;-85
2022/06/06 04:10:44;;;;;;;6.38;3.95;;;;;;;17.65;99.91;95839.50;4984515;28;20254;-87
2022/06/06 04:13:30;;;;;;;5.93;3.78;;;;;;;18.03;99.72;95839.34;4969950;28;20702;-87
2022/06/06 04:16:09;;;;;;;7.50;3.20;;;;;;;18.37;96.08;95851.78;4981343;28;20204;-87
2022/06/06 04:18:48;;;;;;;7.45;3.17;;;;;;;18.62;93.13;95844.69;4968052;28;20203;-87
2022/06/06 04:21:26;;;;;;;7.38;2.78;;;;;;;18.83;89.84;95851.25;4967158;28;20235;-87
2022/06/06 04:24:05;;;;;;;5.43;2.72;;;;;;;18.95;87.25;95849.47;4984686;28;20234;-85
2022/06/06 04:26:42;;;;;;;4.95;2.70;;;;;;;19.02;81.93;95838.94;4981639;28;20192;-85
2022/06/06 04:29:18;;;;;;;4.95;2.90;;;;;;;19.15;87.56;95835.34;4968612;28;20208;-83
2022/06/06 04:31:54;;;;;;;8.63;3.25;;;;;;;19.31;86.49;95845.91;4970712;28;20256;-82
2022/06/06 04:34:29;;;;;;;4.35;2.40;;;;;;;19.19;79.78;95829.44;4981879;28;20200;-84
2022/06/06 04:37:05;;;;;;;3.33;2.80;;;;;;;19.04;79.35;95836.91;4986767;28;20200;-83
2022/06/06 04:39:42;;;;;;;3.47;2.70;;;;;;;18.89;79.57;95833.88;4988356;28;20789;-83
2022/06/06 04:42:13;;;;;;;2.63;2.42;;;;;;;18.80;80.04;95843.06;4987265;28;20232;-84
2022/06/06 04:44:45;;;;;;;2.83;2.50;;;;;;;18.79;80.09;95846.69;4988434;28;20255;-83
2022/06/06 04:47:18;;;;;;;2.72;2.35;;;;;;;18.82;80.95;95847.03;4987541;28;20208;-83
2022/06/06 04:49:47;;;;;;;2.70;2.50;;;;;;;18.84;80.80;95846.81;4987633;28;20235;-85
2022/06/06 04:52:14;;;;;;;4.45;2.70;;;;;;;18.86;80.70;95852.59;4977102;28;20263;-82
2022/06/06 04:54:43;;;;;;;3.58;2.40;;;;;;;18.88;80.07;95845.34;4968142;29;20230;-84
2022/06/06 04:57:12;;;;;;;3.08;2.50;;;;;;;18.90;78.71;95848.53;4968998;29;20285;-83
2022/06/06 04:59:40;;;;;;;2.72;2.22;;;;;;;18.87;79.84;95847.16;4968374;28;20279;-83
2022/06/06 05:02:09;;;;;;;2.47;2.33;;;;;;;18.82;80.51;95847.03;4966914;28;20247;-84
2022/06/06 05:04:35;;;;;;;2.83;2.63;;;;;;;18.80;79.71;95856.91;4967964;29;20224;-83
2022/06/06 05:07:33;;;;;;;4.28;2.30;;;;;;;18.83;79.71;95860.88;4968456;29;20231;-83
2022/06/06 05:10:16;;;;;;;3.22;2.28;;;;;;;18.89;79.75;95865.19;4967571;28;20233;-83
2022/06/06 05:13:05;;;;;;;3.05;2.60;;;;;;;18.92;79.92;95862.94;4967373;29;20696;-83
2022/06/06 05:15:43;;;;;;;3.08;2.55;;;;;;;18.98;80.31;95861.28;4966966;29;20211;-84
2022/06/06 05:18:23;;;;;;;4.60;2.38;;;;;;;18.95;81.98;95862.50;4967893;29;20193;-81
2022/06/06 05:21:01;;;;;;;3.45;2.63;;;;;;;18.95;80.86;95862.50;4966891;28;20658;-84
2022/06/06 05:24:00;;;;;;;3.08;2.45;;;;;;;18.96;80.33;95861.50;4967721;28;20266;-84
2022/06/06 05:26:44;;;;;;;4.13;2.65;;;;;;;19.00;80.56;95866.28;4963403;28;20201;-82
2022/06/06 05:29:32;;;;;;;2.30;2.10;;;;;;;18.98;79.71;95872.50;4968466;29;20216;-83
2022/06/06 05:32:19;;;;;;;2.33;2.13;;;;;;;19.03;79.44;95863.22;4971214;28;20232;-83
2022/06/06 05:34:51;;;;;;;2.30;2.08;;;;;;;19.07;79.64;95867.75;4972715;29;20204;-82
2022/06/06 05:37:31;;;;;;;2.30;2.10;;;;;;;19.15;79.77;95872.69;4971345;29;20205;-85
2022/06/06 05:40:14;;;;;;;2.67;2.38;;;;;;;19.21;78.75;95871.00;4970883;28;20235;-82
2022/06/06 05:43:10;;;;;;;3.40;2.03;;;;;;;19.18;80.55;95869.63;4970644;29;20232;-84
2022/06/06 05:45:44;;;;;;;2.20;2.00;;;;;;;19.19;79.24;95867.81;4969648;28;20205;-83
2022/06/06 05:48:23;;;;;;;2.28;2.00;;;;;;;19.23;78.25;95868.97;4970732;28;20215;-85
2022/06/06 05:51:05;;;;;;;3.30;2.10;;;;;;;19.29;78.31;95871.47;4969530;28;20259;-83
2022/06/06 05:53:43;;;;;;;2.88;1.98;;;;;;;19.33;77.59;95870.00;4951227;29;20245;-83
2022/06/06 05:56:27;;;;;;;2.30;2.10;;;;;;;19.33;75.58;95863.97;4950575;29;20229;-84
2022/06/06 05:59:09;;;;;;;2.20;2.00;;;;;;;19.37;74.81;95859.91;4950964;29;20217;-85
2022/06/06 06:01:52;;;;;;;1.90;1.80;;;;;;;19.45;73.00;95856.16;4949066;29;20233;-84
2022/06/06 06:04:47;;;;;;;2.78;1.73;;;;;;;19.61;72.02;95853.72;4949883;29;20713;-83
2022/06/06 06:07:26;;;;;;;4.75;2.38;;;;;;;19.78;71.81;95853.06;4948811;29;20213;-83
2022/06/06 06:10:06;;;;;;;2.65;2.28;;;;;;;19.78;70.85;95855.66;4948472;29;20221;-83
2022/06/06 06:12:55;;;;;;;2.55;2.00;;;;;;;19.75;70.75;95861.34;4947125;29;20236;-83
2022/06/06 06:15:29;;;;;;;1.80;1.70;;;;;;;19.79;71.22;95860.66;4948114;29;20205;-84
2022/06/06 06:17:57;;;;;;;1.98;1.88;;;;;;;19.87;72.20;95864.75;4958051;29;20197;-83
2022/06/06 06:20:25;;;;;;;2.00;1.83;;;;;;;19.99;72.24;95865.56;4967891;28;20239;-83
2022/06/06 06:22:57;;;;;;;2.35;1.88;;;;;;;20.00;70.99;95869.75;4969070;29;20224;-83
2022/06/06 06:25:25;;;;;;;2.20;2.00;;;;;;;20.07;70.76;95867.00;4968830;29;20208;-84
2022/06/06 06:27:57;;;;;;;2.00;1.90;;;;;;;20.07;70.74;95867.81;4968185;28;20212;-84
2022/06/06 06:30:28;;;;;;;2.28;2.08;;;;;;;20.10;70.77;95863.94;4968000;28;20232;-82
2022/06/06 06:33:12;;;;;;;2.28;1.80;;;;;;;20.06;70.52;95863.59;4969652;28;20213;-83
2022/06/06 06:35:49;;;;;;;2.10;2.00;;;;;;;20.11;71.04;95870.75;4969057;28;20204;-83
2022/06/06 06:38:34;;;;;;;3.10;1.83;;;;;;;20.10;69.72;95872.56;4968201;29;20209;-83
2022/06/06 06:41:06;;;;;;;2.00;1.90;;;;;;;20.18;69.84;95868.81;4968038;28;20373;-83
2022/06/06 06:43:47;;;;;;;3.50;1.95;;;;;;;20.19;70.11;95870.41;4968381;28;20229;-83
2022/06/06 06:46:19;;;;;;;2.15;1.85;;;;;;;20.22;69.58;95867.31;4968583;29;20200;-84
2022/06/06 06:48:51;;;;;;;1.70;1.60;;;;;;;20.24;69.66;95868.69;4968705;29;20272;-82
2022/06/06 06:51:23;;;;;;;2.17;1.95;;;;;;;20.32;69.56;95870.16;4967465;28;20304;-85
2022/06/06 06:54:12;;;;;;;2.28;2.00;;;;;;;20.34;70.28;95868.91;4969260;29;20201;-83
2022/06/06 06:57:04;;;;;;;2.33;2.13;;;;;;;20.46;69.01;95868.13;4968304;28;20201;-83
2022/06/06 06:59:38;;;;;;;2.80;2.20;;;;;;;20.51;69.19;95870.84;4968739;28;20200;-83
2022/06/06 07:11:08;;;;;;;2.10;1.90;;;;;;;20.52;67.90;95867.19;4968148;28;20267;-84
2022/06/06 07:13:44;;;;;;;2.65;2.17;;;;;;;20.59;67.88;95871.25;4968764;28;20233;-83
2022/06/06 07:16:20;;;;;;;2.10;1.90;;;;;;;20.69;67.57;95876.69;4968276;29;20208;-84
2022/06/06 07:18:50;;;;;;;4.45;2.25;;;;;;;20.71;67.14;95868.63;4969253;29;20280;-84
2022/06/06 07:21:18;;;;;;;2.58;2.10;;;;;;;20.74;67.16;95873.41;4966847;28;20240;-84
2022/06/06 07:23:46;;;;;;;2.28;2.08;;;;;;;20.78;67.97;95871.91;4967813;28;20220;-85
2022/06/06 07:26:14;;;;;;;2.47;2.15;;;;;;;20.85;67.71;95867.31;4968213;29;20208;-85
2022/06/06 07:28:41;;;;;;;2.60;2.30;;;;;;;20.86;67.80;95871.53;4967804;29;20434;-86
2022/06/06 07:31:18;;;;;;;4.68;2.20;;;;;;;20.86;66.87;95868.91;4967421;28;20272;-84
2022/06/06 07:34:01;;;;;;;2.65;2.10;;;;;;;20.94;66.45;95862.50;4967681;29;20209;-86
2022/06/06 07:36:39;;;;;;;4.20;2.38;;;;;;;20.95;66.33;95875.38;4967878;29;20212;-84
2022/06/06 07:39:18;;;;;;;4.90;2.30;;;;;;;21.00;65.75;95872.81;4968165;29;20204;-84
2022/06/06 07:41:59;;;;;;;2.35;2.13;;;;;;;21.13;65.80;95877.00;4966107;28;20245;-84
2022/06/06 07:44:40;;;;;;;2.28;2.17;;;;;;;21.28;64.62;95868.63;4968750;29;20267;-84
2022/06/06 07:47:18;;;;;;;2.47;2.03;;;;;;;21.36;63.59;95869.00;4968481;29;20208;-83
2022/06/06 07:49:52;;;;;;;2.22;2.03;;;;;;;21.46;64.01;95868.41;4967962;28;20236;-83
2022/06/06 07:52:29;;;;;;;2.72;2.00;;;;;;;21.48;64.69;95876.81;4966948;28;20256;-83
2022/06/06 07:55:02;;;;;;;3.35;2.25;;;;;;;21.57;64.70;95866.72;4968139;28;20247;-83
2022/06/06 07:57:38;;;;;;;2.10;1.92;;;;;;;21.70;64.63;95869.84;4967812;29;20215;-84
2022/06/06 08:00:10;;;;;;;3.45;2.50;;;;;;;21.69;63.65;95870.88;4966501;28;20231;-84
2022/06/06 08:02:57;;;;;;;4.10;2.40;;;;;;;21.68;62.86;95865.88;4968481;29;20212;-84
2022/06/06 08:05:40;;;;;;;4.45;2.50;;;;;;;21.67;63.19;95865.06;4968274;28;20248;-84
2022/06/06 08:08:09;;;;;;;2.83;2.53;;;;;;;21.80;61.92;95861.31;4967191;28;20201;-84
2022/06/06 08:10:41;;;;;;;6.32;2.63;;;;;;;21.91;61.32;95857.03;4967350;28;20244;-85
2022/06/06 08:13:29;;;;;;;4.95;2.35;;;;;;;21.88;60.53;95853.06;4967249;29;20204;-84
2022/06/06 08:16:10;;;;;;;2.70;2.40;;;;;;;21.83;61.04;95866.09;4968339;29;20232;-84
2022/06/06 08:18:58;;;;;;;3.17;2.40;;;;;;;21.80;60.96;95860.53;4968223;28;20208;-83
2022/06/06 08:21:30;;;;;;;2.47;2.13;;;;;;;21.91;60.88;95857.03;4967134;28;20656;-84
2022/06/06 08:24:01;;;;;;;2.50;2.30;;;;;;;21.87;61.97;95856.72;4968326;29;20227;-83
2022/06/06 08:26:29;;;;;;;2.88;2.47;;;;;;;21.88;62.10;95855.69;4968886;28;20212;-83
2022/06/06 08:28:59;;;;;;;2.53;2.33;;;;;;;21.94;60.34;95859.16;4969166;29;20235;-83
2022/06/06 08:31:25;;;;;;;2.55;2.42;;;;;;;22.03;60.13;95855.94;4967797;28;20260;-83
2022/06/06 08:33:52;;;;;;;5.18;2.40;;;;;;;21.94;59.34;95856.53;4967945;29;20200;-85
2022/06/06 08:36:39;;;;;;;2.35;2.20;;;;;;;22.12;59.64;95858.94;4967656;29;20233;-84
2022/06/06 08:39:18;;;;;;;2.42;2.22;;;;;;;22.21;59.48;95857.47;4967811;29;20205;-85
2022/06/06 08:42:03;;;;;;;3.03;2.50;;;;;;;22.23;60.00;95855.41;4966608;28;20237;-83
2022/06/06 08:44:50;;;;;;;2.50;2.30;;;;;;;22.26;59.38;95854.13;4968531;29;20252;-85
2022/06/06 08:47:28;;;;;;;3.38;2.60;;;;;;;22.23;58.46;95857.22;4968068;29;20260;-85
2022/06/06 08:53:43;;;;;;;2.65;2.40;;;;;;;22.15;58.26;95858.44;4968074;28;20227;-84
2022/06/06 08:56:43;;;;;;;3.17;2.40;;;;;;;21.89;59.98;95859.09;4968761;28;20219;-84
2022/06/06 08:59:42;;;;;;;2.35;2.15;;;;;;;21.83;59.97;95852.97;4952123;28;20233;-84
2022/06/06 09:02:33;;;;;;;2.58;2.38;;;;;;;21.91;58.81;95849.16;4967141;28;20237;-84
2022/06/06 09:05:29;;;;;;;2.60;2.30;;;;;;;22.05;59.58;95853.06;4968339;29;20229;-83
2022/06/06 09:08:41;;;;;;;2.92;2.70;;;;;;;22.07;59.73;95851.00;4968307;29;20201;-84
2022/06/06 09:11:47;;;;;;;3.25;2.60;;;;;;;21.94;60.15;95852.06;4949668;28;20445;-83
2022/06/06 09:14:55;;;;;;;2.45;2.28;;;;;;;21.90;60.36;95845.75;4967840;28;20207;-84
2022/06/06 09:17:56;;;;;;;2.40;2.30;;;;;;;21.90;59.54;95842.34;4968898;29;20197;-84
2022/06/06 09:20:51;;;;;;;2.80;2.60;;;;;;;22.00;60.13;95834.63;4972213;28;20251;-83
2022/06/06 09:24:05;;;;;;;6.32;2.65;;;;;;;22.53;59.60;95831.34;4952855;28;20208;-85
2022/06/06 09:26:45;;;;;;;2.53;2.30;;;;;;;23.01;58.45;95825.34;4971776;28;20230;-83
2022/06/06 09:29:45;;;;;;;2.85;2.53;;;;;;;23.36;56.46;95821.44;4972058;28;20240;-84
2022/06/06 09:32:42;;;;;;;5.25;2.50;;;;;;;23.67;56.60;95825.09;4970949;28;20229;-83
2022/06/06 09:35:34;;;;;;;3.67;2.47;;;;;;;23.79;54.80;95820.47;4971566;29;20208;-85
2022/06/06 09:38:12;;;;;;;3.30;2.83;;;;;;;23.79;54.96;95824.94;4971632;29;20213;-83
2022/06/06 09:40:57;;;;;;;3.90;2.63;;;;;;;23.79;54.66;95823.09;4970438;28;20264;-83
2022/06/06 09:43:41;;;;;;;3.03;2.40;;;;;;;23.63;55.64;95822.19;4972175;28;20207;-84
2022/06/06 09:46:47;;;;;;;2.65;2.42;;;;;;;23.65;55.99;95814.84;4970935;29;20232;-85
2022/06/06 09:49:44;;;;;;;3.63;2.60;;;;;;;24.02;58.34;95825.34;4964912;28;20244;-85
2022/06/06 09:52:50;;;;;;;2.58;2.38;;;;;;;24.35;54.81;95821.56;4969922;28;20240;-84
2022/06/06 09:59:04;;;;;;;2.80;2.35;;;;;;;24.70;51.02;95817.47;4970751;29;20297;-84
2022/06/06 10:01:53;;;;;;;2.55;2.35;;;;;;;24.76;50.19;95817.22;4968832;28;20487;-85
2022/06/06 10:05:00;;;;;;;2.40;2.20;;;;;;;24.88;49.88;95809.06;4970849;28;20224;-86
2022/06/06 10:08:02;;;;;;;2.83;2.40;;;;;;;24.89;51.26;95810.66;4945968;28;20205;-84
2022/06/06 10:10:51;;;;;;;3.28;2.33;;;;;;;25.18;53.53;95811.00;4970166;28;20240;-84
2022/06/06 10:13:28;;;;;;;2.30;2.10;;;;;;;25.28;51.40;95811.00;4969584;29;20264;-85
2022/06/06 10:16:21;;;;;;;2.33;2.13;;;;;;;25.37;51.55;95808.63;4970181;28;20201;-86
2022/06/06 10:19:05;;;;;;;2.45;2.10;;;;;;;24.95;49.97;95803.59;4967426;28;20205;-84
2022/06/06 10:21:53;;;;;;;2.50;2.17;;;;;;;24.42;50.95;95795.81;4969862;28;20232;-83
2022/06/06 10:24:43;;;;;;;2.35;2.15;;;;;;;24.63;52.84;95788.72;4970016;29;20229;-84
2022/06/06 10:27:18;;;;;;;3.92;2.05;;;;;;;25.01;52.76;95778.84;4969058;29;20229;-83
2022/06/06 10:30:12;;;;;;;2.35;2.15;;;;;;;25.33;51.11;95786.47;4968900;28;20215;-84
2022/06/06 10:33:13;;;;;;;2.47;2.28;;;;;;;25.44;51.50;95786.19;4970616;28;20220;-85
2022/06/06 10:35:58;;;;;;;3.33;2.30;;;;;;;25.74;50.01;95785.41;4967894;28;20208;-83
2022/06/06 10:38:51;;;;;;;2.40;2.20;;;;;;;25.67;49.75;95792.00;4972888;29;20241;-84
2022/06/06 10:41:33;;;;;;;2.72;2.53;;;;;;;25.68;49.17;95783.03;4965797;28;20244;-84
2022/06/06 10:44:26;;;;;;;3.72;2.10;;;;;;;25.19;50.93;95788.06;4976054;28;20228;-84
2022/06/06 10:47:03;;;;;;;2.50;2.30;;;;;;;25.03;51.33;95792.53;4976615;28;20224;-83
2022/06/06 10:49:40;;;;;;;4.20;2.05;;;;;;;24.79;52.27;95787.75;4976416;28;20239;-83
2022/06/06 10:52:45;;;;;;;3.35;2.50;;;;;;;24.52;51.93;95787.13;4975531;28;20264;-83
2022/06/06 10:55:38;;;;;;;3.85;2.30;;;;;;;24.45;51.70;95781.31;4975001;28;20192;-83
2022/06/06 10:58:37;;;;;;;2.38;2.05;;;;;;;24.66;51.31;95782.16;4971801;29;20375;-84
2022/06/06 11:01:46;;;;;;;3.33;2.25;;;;;;;25.16;49.44;95778.06;4969453;28;20228;-83
2022/06/06 11:04:44;;;;;;;2.20;2.05;;;;;;;25.30;50.35;95779.88;4937609;28;20211;-84
2022/06/06 11:07:33;;;;;;;2.17;2.00;;;;;;;25.25;49.23;95765.91;4969887;28;20205;-85
2022/06/06 11:10:17;;;;;;;2.17;2.00;;;;;;;25.00;51.49;95772.00;4969146;28;20225;-84
2022/06/06 11:13:16;;;;;;;2.50;2.30;;;;;;;24.82;50.22;95767.19;4969786;29;20353;-84
2022/06/06 11:15:56;;;;;;;2.50;2.30;;;;;;;24.58;51.98;95765.03;4969240;29;20256;-85
2022/06/06 11:18:48;;;;;;;2.58;2.10;;;;;;;24.34;51.89;95764.72;4969839;29;20251;-86
2022/06/06 11:21:45;;;;;;;2.13;2.00;;;;;;;24.15;52.20;95760.91;4967872;28;20237;-84
2022/06/06 11:24:20;;;;;;;3.70;2.17;;;;;;;24.07;53.06;95756.94;4968793;29;20209;-85
2022/06/06 11:27:12;;;;;;;2.33;2.13;;;;;;;24.00;52.99;95758.22;4968534;28;20268;-84
2022/06/06 11:30:19;;;;;;;3.13;2.28;;;;;;;23.79;54.03;95756.56;4968073;28;20212;-85
2022/06/06 11:33:04;;;;;;;4.38;2.40;;;;;;;23.57;55.95;95757.47;4967596;28;20229;-85
2022/06/06 11:35:35;;;;;;;5.93;2.28;;;;;;;23.39;56.24;95756.03;4968305;29;20197;-84
2022/06/06 11:38:36;;;;;;;3.13;2.40;;;;;;;23.28;58.12;95758.84;4968731;29;20205;-84
2022/06/06 11:41:16;;;;;;;2.05;1.95;;;;;;;23.12;58.98;95768.41;4968535;28;20232;-85
2022/06/06 11:44:26;;;;;;;3.53;2.60;;;;;;;23.09;59.88;95763.69;4969524;28;20228;-83
2022/06/06 11:47:35;;;;;;;2.75;2.33;;;;;;;22.90;64.40;95763.22;4970439;28;20728;-82
2022/06/06 11:50:55;;;;;;;2.72;2.53;;;;;;;23.06;68.95;95759.72;4968623;28;20256;-83
2022/06/06 11:54:09;;;;;;;3.13;2.90;;;;;;;23.41;66.75;95753.94;4963399;28;20212;-83
2022/06/06 11:57:13;;;;;;;4.22;2.70;;;;;;;24.07;66.86;95746.41;4945344;28;20204;-83
2022/06/06 12:00:04;;;;;;;2.90;2.70;;;;;;;24.27;65.66;95750.19;4969824;28;20200;-83
2022/06/06 12:02:47;;;;;;;3.30;2.33;;;;;;;24.57;60.62;95741.59;4968025;28;20439;-84
2022/06/06 12:05:30;;;;;;;2.53;2.35;;;;;;;24.82;59.46;95743.50;4968700;29;20256;-85
2022/06/06 12:08:32;;;;;;;2.53;2.25;;;;;;;25.03;59.14;95743.25;4968659;29;20205;-85
2022/06/06 12:11:27;;;;;;;3.00;2.28;;;;;;;25.28;57.95;95733.75;4966967;28;20319;-84
2022/06/06 12:14:16;;;;;;;2.38;2.20;;;;;;;25.45;52.75;95727.13;4968293;29;20204;-84
2022/06/06 12:16:55;;;;;;;2.25;2.05;;;;;;;25.58;51.82;95723.19;4968975;29;20461;-84
2022/06/06 12:20:13;;;;;;;2.50;2.30;;;;;;;25.72;51.81;95737.41;4955002;29;20205;-83
2022/06/06 12:22:56;;;;;;;2.30;2.10;;;;;;;25.70;50.50;95718.41;4948012;29;20232;-84
2022/06/06 12:25:53;;;;;;;2.15;1.95;;;;;;;25.85;49.79;95719.41;4949606;29;20221;-85
2022/06/06 12:28:50;;;;;;;2.42;2.22;;;;;;;25.91;48.99;95715.72;4948173;29;20241;-84
2022/06/06 12:31:34;;;;;;;2.75;2.03;;;;;;;26.09;50.90;95718.53;4941756;29;20248;-83
2022/06/06 12:34:08;;;;;;;3.13;1.70;;;;;;;26.07;47.82;95717.22;4941698;29;20622;-84
2022/06/06 12:36:44;;;;;;;2.00;1.80;;;;;;;26.19;49.06;95711.63;4941778;29;20208;-84
2022/06/06 12:39:17;;;;;;;5.18;1.80;;;;;;;26.26;47.79;95707.63;4945687;29;20205;-84
2022/06/06 12:41:55;;;;;;;2.60;2.00;;;;;;;26.36;46.21;95704.94;4941315;29;20503;-84
2022/06/06 12:44:52;;;;;;;2.15;1.92;;;;;;;26.45;48.13;95705.19;4941688;29;20212;-83
2022/06/06 12:47:37;;;;;;;2.30;2.10;;;;;;;26.42;48.06;95700.44;4942737;29;20213;-84
2022/06/06 12:50:20;;;;;;;2.08;1.88;;;;;;;26.45;49.66;95703.31;4946775;28;20223;-84
2022/06/06 12:53:06;;;;;;;2.33;2.10;;;;;;;26.53;48.49;95698.53;4968964;28;20211;-84
2022/06/06 12:55:43;;;;;;;3.95;2.28;;;;;;;26.60;46.79;95699.78;4981424;28;20192;-84
2022/06/06 12:58:25;;;;;;;5.15;2.15;;;;;;;26.48;47.78;95694.88;4959900;28;20207;-83